Time;durP1;ratioP1;P1;durP2;ratioP2;P2;SDS_P1;SDS_P2;PMS_P1;PMS_P2;Temp;Humidity;BMP_temperature;BMP_pressure;BME280_temperature;BME280_humidity;BME280_pressure;Samples;Min_cycle;Max_cycle;Signal;HPM_P1;HPM_P2
2022/03/18 00:02:08;;;;;;;;;;;4.50;99.90;;;;;;5038691;28;20033;-77
2022/03/18 00:04:34;;;;;;;14.40;6.20;;;4.50;99.90;;;;;;5022032;28;19916;-77
2022/03/18 00:07:01;;;;;;;14.88;5.93;;;4.40;99.90;;;;;;5018573;28;20053;-78
2022/03/18 00:09:26;;;;;;;14.43;5.57;;;4.40;99.90;;;;;;5051423;28;20480;-78
2022/03/18 00:11:52;;;;;;;19.92;6.20;;;4.90;99.90;;;;;;5034876;28;20072;-76
2022/03/18 00:14:19;;;;;;;11.40;5.13;;;4.70;99.90;;;;;;5018071;28;20128;-76
2022/03/18 00:16:45;;;;;;;13.57;6.07;;;5.20;99.90;;;;;;5051892;28;20047;-77
2022/03/18 00:19:11;;;;;;;15.32;5.53;;;4.20;99.90;;;;;;5051220;28;20033;-77
2022/03/18 00:21:37;;;;;;;12.93;5.30;;;4.20;99.90;;;;;;5051281;28;20776;-77
2022/03/18 00:24:03;;;;;;;15.45;5.93;;;4.20;99.90;;;;;;5050972;28;20404;-77
2022/03/18 00:26:30;;;;;;;13.63;5.13;;;4.20;99.90;;;;;;5050972;28;20485;-77
2022/03/18 00:28:56;;;;;;;14.00;5.38;;;4.20;99.90;;;;;;5018432;28;20041;-77
2022/03/18 00:31:22;;;;;;;18.05;6.38;;;4.10;99.90;;;;;;5034295;28;20185;-77
2022/03/18 00:33:47;;;;;;;14.35;5.65;;;4.10;99.90;;;;;;5051564;28;20542;-77
2022/03/18 00:36:13;;;;;;;16.67;6.23;;;4.10;99.90;;;;;;5010566;28;20037;-77
2022/03/18 00:38:39;;;;;;;17.27;5.57;;;5.00;99.90;;;;;;5034590;28;20040;-77
2022/03/18 00:41:05;;;;;;;13.38;6.30;;;4.00;99.90;;;;;;5051187;28;20049;-77
2022/03/18 00:43:31;;;;;;;17.13;6.30;;;4.00;99.90;;;;;;5034497;28;20041;-78
2022/03/18 00:45:57;;;;;;;15.60;6.40;;;5.20;99.90;;;;;;5051087;28;20033;-77
2022/03/18 00:53:53;;;;;;;13.20;5.82;;;4.00;99.90;;;;;;5035368;28;20495;-77
2022/03/18 00:56:19;;;;;;;17.70;6.30;;;4.10;99.90;;;;;;5050318;28;20041;-78
2022/03/18 00:58:44;;;;;;;18.17;6.53;;;5.40;99.90;;;;;;5050828;28;20045;-78
2022/03/18 01:01:10;;;;;;;17.67;6.30;;;3.90;99.90;;;;;;5050227;28;20469;-78
2022/03/18 01:03:36;;;;;;;18.67;6.75;;;5.20;99.90;;;;;;5034175;28;20041;-78
2022/03/18 01:06:03;;;;;;;18.33;7.00;;;4.00;99.90;;;;;;5034012;28;20473;-78
2022/03/18 01:08:29;;;;;;;19.58;6.95;;;3.90;99.90;;;;;;5050210;28;20102;-78
2022/03/18 01:10:55;;;;;;;17.77;7.10;;;3.80;99.90;;;;;;5050494;28;20041;-78
2022/03/18 01:13:21;;;;;;;17.15;7.15;;;3.80;99.90;;;;;;5017022;28;20488;-78
2022/03/18 01:15:47;;;;;;;15.80;7.03;;;3.80;99.90;;;;;;5034196;28;20055;-77
2022/03/18 01:18:13;;;;;;;17.57;6.80;;;3.80;99.90;;;;;;5033245;28;20033;-77
2022/03/18 01:20:39;;;;;;;14.40;7.22;;;5.30;99.90;;;;;;5017346;28;20310;-77
2022/03/18 01:23:07;;;;;;;13.53;6.53;;;3.80;99.90;;;;;;5050245;28;20410;-77
2022/03/18 01:25:34;;;;;;;25.20;8.05;;;3.90;99.90;;;;;;5047362;28;20043;-77
2022/03/18 01:28:01;;;;;;;18.27;7.68;;;4.10;99.90;;;;;;5017771;28;20043;-78
2022/03/18 01:30:29;;;;;;;20.75;8.07;;;4.00;99.90;;;;;;5049666;28;20040;-77
2022/03/18 01:32:55;;;;;;;20.83;7.95;;;3.90;99.90;;;;;;5017742;28;20052;-77
2022/03/18 01:35:21;;;;;;;19.70;8.23;;;3.80;99.90;;;;;;5033303;28;20186;-77
2022/03/18 01:37:47;;;;;;;16.08;8.02;;;3.90;99.90;;;;;;5050381;28;20120;-77
2022/03/18 01:40:12;;;;;;;26.92;8.98;;;3.90;99.90;;;;;;5032906;28;20037;-77
2022/03/18 01:42:38;;;;;;;22.63;9.00;;;4.00;99.90;;;;;;5050105;28;20183;-76
2022/03/18 01:45:04;;;;;;;22.92;9.57;;;5.10;99.90;;;;;;5016900;28;20040;-77
2022/03/18 01:47:30;;;;;;;17.63;8.70;;;3.90;99.90;;;;;;5033372;28;20504;-77
2022/03/18 01:49:58;;;;;;;16.05;8.65;;;3.90;99.90;;;;;;5033774;28;20045;-77
2022/03/18 01:52:24;;;;;;;18.40;8.57;;;3.90;99.90;;;;;;5032758;28;20037;-77
2022/03/18 01:54:53;;;;;;;;;;;3.90;99.90;;;;;;5031626;28;20037;-77
2022/03/18 01:57:21;;;;;;;16.98;9.15;;;3.90;99.90;;;;;;5049125;28;19916;-77
2022/03/18 01:59:48;;;;;;;19.08;8.95;;;3.90;99.90;;;;;;5049759;28;20131;-77
2022/03/18 02:02:15;;;;;;;17.50;10.07;;;3.90;99.90;;;;;;5032382;28;20133;-77
2022/03/18 02:04:42;;;;;;;23.77;9.93;;;3.90;99.90;;;;;;5049541;28;20094;-77
2022/03/18 02:07:08;;;;;;;17.83;9.57;;;3.90;99.90;;;;;;5049332;28;20049;-77
2022/03/18 02:09:35;;;;;;;20.33;9.55;;;4.80;99.90;;;;;;5032429;28;20087;-78
2022/03/18 02:12:02;;;;;;;25.73;9.68;;;4.40;99.90;;;;;;5047549;28;20041;-77
2022/03/18 02:14:36;;;;;;;26.58;10.20;;;3.80;99.90;;;;;;5032726;28;20043;-77
2022/03/18 02:17:04;;;;;;;24.38;10.38;;;3.80;99.90;;;;;;5032843;28;20037;-77
2022/03/18 02:19:30;;;;;;;22.00;10.07;;;3.80;99.90;;;;;;5048374;28;20045;-77
2022/03/18 02:21:57;;;;;;;22.02;10.23;;;3.90;99.90;;;;;;5032928;28;20037;-77
2022/03/18 02:24:24;;;;;;;21.75;9.95;;;3.90;99.90;;;;;;5032471;28;20033;-78
2022/03/18 02:26:51;;;;;;;24.13;10.48;;;3.80;99.90;;;;;;5033042;28;20067;-76
2022/03/18 02:29:19;;;;;;;23.67;10.77;;;3.80;99.90;;;;;;5048612;28;20098;-77
2022/03/18 02:31:46;;;;;;;26.80;10.38;;;4.20;99.90;;;;;;5032771;28;20095;-77
2022/03/18 02:34:12;;;;;;;;;;;3.90;99.90;;;;;;5049259;28;20080;-77
2022/03/18 02:36:38;;;;;;;19.27;9.98;;;3.70;99.90;;;;;;5031295;28;19964;-78
2022/03/18 02:39:04;;;;;;;25.20;10.90;;;4.00;99.90;;;;;;5049073;28;20041;-78
2022/03/18 02:41:30;;;;;;;23.00;11.70;;;3.80;99.90;;;;;;5048911;28;20029;-78
2022/03/18 02:43:55;;;;;;;27.63;11.35;;;3.70;99.90;;;;;;5032624;28;20040;-77
2022/03/18 02:46:21;;;;;;;19.93;10.63;;;5.00;99.90;;;;;;5047805;28;20047;-77
2022/03/18 02:48:47;;;;;;;22.42;10.38;;;3.70;99.90;;;;;;5014822;28;20405;-77
2022/03/18 02:51:13;;;;;;;25.63;10.77;;;3.70;99.90;;;;;;5046899;28;20048;-78
2022/03/18 02:53:39;;;;;;;21.33;10.90;;;4.60;99.90;;;;;;5031921;28;20041;-78
2022/03/18 02:56:06;;;;;;;18.75;10.90;;;3.60;99.90;;;;;;5049263;28;20163;-78
2022/03/18 02:58:32;;;;;;;;;;;4.20;99.90;;;;;;5032339;28;20040;-78
2022/03/18 03:00:57;;;;;;;26.85;10.88;;;3.70;99.90;;;;;;5032643;28;19921;-78
2022/03/18 03:03:23;;;;;;;25.87;10.70;;;3.70;99.90;;;;;;5015614;28;20377;-78
2022/03/18 03:08:33;;;;;;;25.38;10.82;;;3.70;99.90;;;;;;5048169;28;20048;-78
2022/03/18 03:10:59;;;;;;;26.02;11.40;;;3.70;99.90;;;;;;5032923;28;20044;-79
2022/03/18 03:13:24;;;;;;;18.85;11.35;;;4.70;99.90;;;;;;5011057;28;20045;-76
2022/03/18 03:15:50;;;;;;;21.58;11.20;;;4.70;99.90;;;;;;5048830;28;20053;-77
2022/03/18 03:18:16;;;;;;;24.90;11.60;;;3.70;99.90;;;;;;5048796;28;20477;-77
2022/03/18 03:20:42;;;;;;;28.90;11.77;;;3.70;99.90;;;;;;5045920;28;20041;-77
2022/03/18 03:23:09;;;;;;;21.90;11.25;;;3.80;99.90;;;;;;5015712;28;20040;-77
2022/03/18 03:25:35;;;;;;;20.98;11.05;;;3.70;99.90;;;;;;5048210;28;20032;-77
2022/03/18 03:28:01;;;;;;;24.20;10.68;;;3.60;99.90;;;;;;5032327;28;20524;-77
2022/03/18 03:30:26;;;;;;;21.55;11.02;;;3.60;99.90;;;;;;5048006;28;20066;-77
2022/03/18 03:32:52;;;;;;;26.15;11.40;;;3.70;99.90;;;;;;5032122;28;20051;-78
2022/03/18 03:35:18;;;;;;;22.80;10.95;;;4.80;99.90;;;;;;5032220;28;20064;-77
2022/03/18 03:37:44;;;;;;;23.38;11.50;;;4.70;99.90;;;;;;5031875;28;20036;-77
2022/03/18 03:40:14;;;;;;;23.17;11.30;;;3.50;99.90;;;;;;5048470;28;20055;-77
2022/03/18 03:42:41;;;;;;;25.60;12.02;;;3.50;99.90;;;;;;5048226;28;20051;-77
2022/03/18 03:45:12;;;;;;;25.30;11.55;;;3.50;99.90;;;;;;5048767;28;20504;-78
2022/03/18 03:47:39;;;;;;;23.13;11.23;;;3.50;99.90;;;;;;5039673;28;20040;-78
2022/03/18 03:50:06;;;;;;;20.95;10.70;;;3.40;99.90;;;;;;5052167;28;20090;-78
2022/03/18 03:52:32;;;;;;;20.85;11.30;;;3.50;99.90;;;;;;5035405;28;20037;-78
2022/03/18 03:54:58;;;;;;;24.05;11.55;;;4.50;99.90;;;;;;5035941;28;20457;-77
2022/03/18 03:57:23;;;;;;;21.02;11.27;;;3.40;99.90;;;;;;5032803;28;20048;-79
2022/03/18 03:59:49;;;;;;;19.77;10.80;;;3.60;99.90;;;;;;5051882;28;20048;-78
2022/03/18 04:02:15;;;;;;;22.23;11.55;;;3.40;99.90;;;;;;5018779;28;20039;-77
2022/03/18 04:04:40;;;;;;;21.27;10.50;;;3.40;99.90;;;;;;5051461;28;20033;-78
2022/03/18 04:07:06;;;;;;;22.33;11.52;;;3.40;99.90;;;;;;5034833;28;20053;-78
2022/03/18 04:09:32;;;;;;;19.17;10.45;;;3.40;99.90;;;;;;5025330;28;20397;-78
2022/03/18 04:11:58;;;;;;;21.63;12.05;;;3.40;99.90;;;;;;5035286;28;20094;-78
2022/03/18 04:14:24;;;;;;;22.23;12.00;;;3.40;99.90;;;;;;5034813;28;20048;-78
2022/03/18 04:16:49;;;;;;;28.35;12.13;;;3.40;99.90;;;;;;5034999;28;20052;-78
2022/03/18 04:19:15;;;;;;;18.73;10.70;;;3.50;99.90;;;;;;5051433;28;20377;-78
2022/03/18 04:21:42;;;;;;;19.90;11.63;;;3.50;99.90;;;;;;5017731;28;20037;-78
2022/03/18 04:24:08;;;;;;;21.90;11.20;;;4.70;99.90;;;;;;5051566;28;20276;-78
2022/03/18 04:26:33;;;;;;;22.20;10.80;;;5.10;99.90;;;;;;5034832;28;20083;-78
2022/03/18 04:28:59;;;;;;;21.07;11.50;;;3.60;99.90;;;;;;5034745;28;20082;-78
2022/03/18 04:31:25;;;;;;;21.97;11.33;;;3.70;99.90;;;;;;5017818;28;20370;-78
2022/03/18 04:33:50;;;;;;;19.23;10.40;;;3.70;99.90;;;;;;5034829;28;20055;-78
2022/03/18 04:36:16;;;;;;;22.13;11.20;;;3.80;99.90;;;;;;5017877;28;20286;-77
2022/03/18 04:38:42;;;;;;;18.13;11.07;;;4.00;99.90;;;;;;5034211;28;20283;-77
2022/03/18 04:41:07;;;;;;;18.73;10.40;;;3.90;99.90;;;;;;5051352;28;20033;-77
2022/03/18 04:43:33;;;;;;;17.08;10.38;;;4.60;99.90;;;;;;5050758;28;20290;-77
2022/03/18 04:45:59;;;;;;;16.85;10.27;;;3.90;99.90;;;;;;5034639;28;20494;-77
2022/03/18 04:48:24;;;;;;;20.40;11.33;;;3.90;99.90;;;;;;5018093;28;20127;-78
2022/03/18 04:50:50;;;;;;;18.17;10.48;;;4.00;99.90;;;;;;5034051;28;20511;-78
2022/03/18 04:53:16;;;;;;;15.88;10.50;;;4.20;99.90;;;;;;5034469;28;20037;-78
2022/03/18 04:55:42;;;;;;;19.65;10.95;;;4.00;99.90;;;;;;5017480;28;20044;-78
2022/03/18 04:58:07;;;;;;;22.05;10.60;;;4.00;99.90;;;;;;5001469;28;20044;-78
2022/03/18 05:00:35;;;;;;;18.90;10.65;;;4.00;99.90;;;;;;5033292;28;20045;-78
2022/03/18 05:03:01;;;;;;;17.50;10.60;;;4.30;99.90;;;;;;5051052;28;20044;-77
2022/03/18 05:05:27;;;;;;;22.35;10.27;;;4.60;99.90;;;;;;5033876;28;20484;-77
2022/03/18 05:07:53;;;;;;;19.57;10.17;;;4.00;99.90;;;;;;5032734;28;20044;-77
2022/03/18 05:10:19;;;;;;;19.10;10.35;;;4.10;99.90;;;;;;5023162;28;20094;-77
2022/03/18 05:12:46;;;;;;;19.13;11.20;;;4.00;99.90;;;;;;5046311;28;20040;-77
2022/03/18 05:15:12;;;;;;;18.08;10.27;;;4.00;99.90;;;;;;5044730;28;20115;-78
2022/03/18 05:17:39;;;;;;;19.35;10.88;;;3.90;99.90;;;;;;5022050;28;20044;-79
2022/03/18 05:20:10;;;;;;;20.50;10.65;;;4.70;99.90;;;;;;5035491;28;20489;-79
2022/03/18 05:22:36;;;;;;;16.83;11.18;;;3.90;99.90;;;;;;5017945;28;20086;-79
2022/03/18 05:25:02;;;;;;;21.33;10.27;;;4.00;99.90;;;;;;5035812;28;20029;-79
2022/03/18 05:27:28;;;;;;;19.65;10.50;;;3.90;99.90;;;;;;5024498;28;20075;-81
2022/03/18 05:29:55;;;;;;;16.20;10.57;;;3.90;99.90;;;;;;5045741;28;20062;-78
2022/03/18 05:32:20;;;;;;;19.38;10.38;;;3.80;99.90;;;;;;5038772;28;20523;-77
2022/03/18 05:34:46;;;;;;;18.37;10.83;;;4.40;99.90;;;;;;5021138;28;20037;-77
2022/03/18 05:37:12;;;;;;;16.70;11.18;;;4.50;99.90;;;;;;5041984;28;20064;-78
2022/03/18 05:39:37;;;;;;;20.52;11.07;;;5.00;99.90;;;;;;5021335;28;20392;-78
2022/03/18 05:42:04;;;;;;;21.85;10.85;;;3.90;99.90;;;;;;5048638;28;20044;-77
2022/03/18 05:44:30;;;;;;;;;;;3.70;99.90;;;;;;5046262;28;20056;-78
2022/03/18 05:46:56;;;;;;;20.05;10.35;;;3.60;99.90;;;;;;5039335;28;19940;-75
2022/03/18 05:49:22;;;;;;;20.17;11.70;;;4.20;99.90;;;;;;5042711;28;20037;-77
2022/03/18 05:51:48;;;;;;;19.02;10.55;;;3.50;99.90;;;;;;5028852;28;20039;-77
2022/03/18 05:54:14;;;;;;;18.33;10.02;;;4.50;99.90;;;;;;5048616;28;20032;-77
2022/03/18 05:56:55;;;;;;;20.05;11.52;;;3.60;99.90;;;;;;5035951;28;20032;-77
2022/03/18 05:59:26;;;;;;;20.55;11.75;;;4.50;99.90;;;;;;5024295;28;20080;-77
2022/03/18 06:01:53;;;;;;;22.23;12.40;;;3.50;99.90;;;;;;5049210;28;20056;-77
2022/03/18 06:04:20;;;;;;;26.60;12.35;;;3.50;99.90;;;;;;5023748;28;20126;-78
2022/03/18 06:06:47;;;;;;;21.27;12.32;;;3.50;99.90;;;;;;5041444;28;20041;-78
2022/03/18 06:12:02;;;;;;;24.98;13.82;;;3.60;99.90;;;;;;5048598;28;20036;-78
2022/03/18 06:14:29;;;;;;;21.48;12.88;;;3.60;99.90;;;;;;5049600;28;20041;-78
2022/03/18 06:16:57;;;;;;;18.23;11.80;;;3.90;99.90;;;;;;5032874;28;20124;-78
2022/03/18 06:19:24;;;;;;;19.50;11.88;;;3.60;99.90;;;;;;5049394;28;20096;-78
2022/03/18 06:21:50;;;;;;;18.92;12.93;;;3.70;99.90;;;;;;5048913;28;20071;-78
2022/03/18 06:24:17;;;;;;;20.02;13.23;;;3.70;99.90;;;;;;5049456;28;20059;-78
2022/03/18 06:26:43;;;;;;;20.83;13.07;;;4.90;99.90;;;;;;5027596;28;20033;-78
2022/03/18 06:29:10;;;;;;;24.88;13.90;;;3.80;99.90;;;;;;5016435;28;20049;-78
2022/03/18 06:31:36;;;;;;;20.95;14.15;;;3.90;99.90;;;;;;5049073;28;20037;-78
2022/03/18 06:34:03;;;;;;;21.58;13.30;;;4.70;99.90;;;;;;5049699;28;20045;-78
2022/03/18 06:36:29;;;;;;;18.27;12.48;;;4.00;99.90;;;;;;5032556;28;20127;-76
2022/03/18 06:38:55;;;;;;;22.83;13.10;;;4.10;99.90;;;;;;5021507;28;20039;-77
2022/03/18 06:41:22;;;;;;;20.98;12.77;;;4.20;99.90;;;;;;5032921;28;20531;-79
2022/03/18 06:43:49;;;;;;;23.33;13.10;;;4.20;99.90;;;;;;5049183;28;20087;-80
2022/03/18 06:46:15;;;;;;;18.23;12.13;;;5.20;99.90;;;;;;5049291;28;20102;-80
2022/03/18 06:48:42;;;;;;;19.63;12.85;;;5.40;99.90;;;;;;5032362;28;20778;-80
2022/03/18 06:51:08;;;;;;;19.73;12.13;;;5.60;99.90;;;;;;5032982;28;20408;-80
2022/03/18 06:53:34;;;;;;;18.90;12.70;;;4.70;99.90;;;;;;5016403;28;20048;-80
2022/03/18 06:56:00;;;;;;;20.95;12.68;;;4.90;99.90;;;;;;5049025;28;20041;-80
2022/03/18 06:58:29;;;;;;;23.30;12.75;;;5.90;99.90;;;;;;5049589;28;20033;-81
2022/03/18 07:00:55;;;;;;;17.20;11.93;;;5.10;99.90;;;;;;5032127;28;20037;-80
2022/03/18 07:03:21;;;;;;;19.33;12.13;;;5.60;99.90;;;;;;5008959;28;20037;-79
2022/03/18 07:05:46;;;;;;;19.37;11.70;;;5.50;99.90;;;;;;5017039;28;20117;-80
2022/03/18 07:08:12;;;;;;;20.42;12.32;;;5.60;99.90;;;;;;5035785;28;20372;-79
2022/03/18 07:10:39;;;;;;;18.73;12.00;;;5.70;99.90;;;;;;5036097;28;20032;-79
2022/03/18 07:13:04;;;;;;;;;;;5.80;99.90;;;;;;5029004;28;20029;-79
2022/03/18 07:15:30;;;;;;;15.30;11.20;;;5.90;99.90;;;;;;5034404;28;19978;-79
2022/03/18 07:17:58;;;;;;;16.17;11.13;;;6.10;99.90;;;;;;5035698;28;20032;-79
2022/03/18 07:20:29;;;;;;;17.95;11.18;;;6.30;99.90;;;;;;5050027;28;20373;-79
2022/03/18 07:23:08;;;;;;;17.75;11.10;;;6.40;99.90;;;;;;5053927;28;20502;-77
2022/03/18 07:25:39;;;;;;;16.10;11.13;;;6.60;99.90;;;;;;5064630;28;20036;-77
2022/03/18 07:28:08;;;;;;;16.90;11.05;;;6.70;99.90;;;;;;5063143;28;20052;-78
2022/03/18 07:30:34;;;;;;;14.95;10.95;;;6.90;99.90;;;;;;5055790;28;20095;-78
2022/03/18 07:33:00;;;;;;;18.65;11.25;;;7.10;99.90;;;;;;5022270;28;20036;-77
2022/03/18 07:35:26;;;;;;;18.15;11.70;;;7.20;99.90;;;;;;5029639;28;20041;-77
2022/03/18 07:37:52;;;;;;;20.38;10.43;;;7.40;99.90;;;;;;5055718;28;20413;-77
2022/03/18 07:40:19;;;;;;;17.10;9.55;;;7.80;99.90;;;;;;5022220;28;20078;-77
2022/03/18 07:42:53;;;;;;;13.10;9.35;;;8.40;99.90;;;;;;5038668;28;20052;-77
2022/03/18 07:45:27;;;;;;;15.07;8.85;;;9.20;99.90;;;;;;5037666;28;20041;-77
2022/03/18 07:47:56;;;;;;;13.35;8.32;;;10.00;99.90;;;;;;5037483;28;20037;-77
2022/03/18 07:50:25;;;;;;;13.82;7.78;;;10.40;99.90;;;;;;5055658;28;20135;-77
2022/03/18 07:52:53;;;;;;;13.43;6.95;;;10.80;99.90;;;;;;5054774;28;20118;-77
2022/03/18 07:55:21;;;;;;;15.48;7.88;;;11.30;99.90;;;;;;5055452;28;20080;-79
2022/03/18 07:57:47;;;;;;;13.57;7.57;;;11.70;99.90;;;;;;5055248;28;20119;-77
2022/03/18 08:00:15;;;;;;;13.07;7.60;;;12.10;99.90;;;;;;5060179;28;20040;-77
2022/03/18 08:02:42;;;;;;;11.68;7.10;;;12.50;99.90;;;;;;5055708;28;20449;-79
2022/03/18 08:05:09;;;;;;;13.55;7.35;;;12.70;99.90;;;;;;5022558;28;20032;-77
2022/03/18 08:07:35;;;;;;;;;;;13.00;99.90;;;;;;5055779;28;20102;-77
2022/03/18 08:10:02;;;;;;;11.10;7.10;;;12.90;99.90;;;;;;5038112;28;19916;-77
2022/03/18 08:12:29;;;;;;;12.27;7.28;;;13.50;99.90;;;;;;5029283;28;20045;-78
2022/03/18 08:14:57;;;;;;;15.55;7.22;;;13.80;99.90;;;;;;5055126;28;20408;-83
2022/03/18 08:17:23;;;;;;;13.40;7.03;;;14.10;99.90;;;;;;5038716;28;20032;-80
2022/03/18 08:19:52;;;;;;;11.88;7.05;;;14.20;99.90;;;;;;5022513;28;20485;-80
2022/03/18 08:22:21;;;;;;;13.70;6.82;;;14.20;99.90;;;;;;5038642;28;20044;-80
2022/03/18 08:24:51;;;;;;;12.80;7.10;;;14.60;99.90;;;;;;5038855;28;20051;-81
2022/03/18 08:27:17;;;;;;;11.38;6.47;;;15.00;99.90;;;;;;5022497;28;20510;-80
2022/03/18 08:29:45;;;;;;;11.95;6.85;;;15.00;99.90;;;;;;5039220;28;20047;-81
2022/03/18 08:32:15;;;;;;;15.65;7.40;;;15.40;99.90;;;;;;5038963;28;20052;-80
2022/03/18 08:34:41;;;;;;;16.23;6.60;;;15.60;99.90;;;;;;5038640;28;20472;-80
2022/03/18 08:37:08;;;;;;;17.65;6.47;;;16.00;99.90;;;;;;5038001;28;20137;-80
2022/03/18 08:39:38;;;;;;;14.43;6.15;;;16.20;99.90;;;;;;5054833;28;20041;-80
2022/03/18 08:42:04;;;;;;;16.23;5.70;;;16.50;99.90;;;;;;5035712;28;20039;-80
2022/03/18 08:44:31;;;;;;;14.30;6.45;;;16.60;99.90;;;;;;5020896;28;20048;-79
2022/03/18 08:46:57;;;;;;;15.07;6.47;;;16.60;99.90;;;;;;5054241;28;20028;-78
2022/03/18 08:49:23;;;;;;;11.27;5.63;;;16.70;99.90;;;;;;5054633;28;20094;-77
2022/03/18 08:51:49;;;;;;;13.93;6.80;;;17.00;99.90;;;;;;5021248;28;20048;-79
2022/03/18 08:54:15;;;;;;;10.98;5.50;;;17.00;99.90;;;;;;5038280;28;20060;-78
2022/03/18 08:56:41;;;;;;;11.68;5.68;;;17.10;99.90;;;;;;5033795;28;20045;-79
2022/03/18 08:59:07;;;;;;;13.02;6.00;;;17.20;99.90;;;;;;5037707;28;20380;-79
2022/03/18 09:01:34;;;;;;;13.77;5.45;;;17.10;99.90;;;;;;5037830;28;20043;-78
2022/03/18 09:04:00;;;;;;;11.50;5.53;;;17.30;99.90;;;;;;5051611;28;20041;-79
2022/03/18 09:06:26;;;;;;;14.70;5.80;;;17.30;99.90;;;;;;5053954;28;20190;-80
2022/03/18 09:08:52;;;;;;;16.33;5.85;;;17.40;99.90;;;;;;5054377;28;20099;-78
2022/03/18 09:11:18;;;;;;;14.45;5.85;;;17.50;99.90;;;;;;5021325;28;20040;-80
2022/03/18 09:13:44;;;;;;;9.75;5.07;;;18.10;99.90;;;;;;5020992;28;20040;-77
2022/03/18 09:16:11;;;;;;;;;;;18.50;99.90;;;;;;5021348;28;20483;-77
2022/03/18 09:18:37;;;;;;;;;;;18.30;99.90;;;;;;5054575;28;20376;-77
2022/03/18 09:21:03;;;;;;;12.65;5.43;;;18.70;99.90;;;;;;5053575;28;19927;-79
2022/03/18 09:23:28;;;;;;;16.40;5.60;;;19.10;99.90;;;;;;5035618;28;20048;-78
2022/03/18 09:25:54;;;;;;;14.02;5.45;;;18.60;99.90;;;;;;5053564;28;20048;-79
2022/03/18 09:28:20;;;;;;;11.85;5.60;;;19.10;99.90;;;;;;5020915;28;20036;-78
2022/03/18 09:30:46;;;;;;;11.35;4.63;;;19.30;99.90;;;;;;5021035;28;20036;-78
2022/03/18 09:33:12;;;;;;;15.90;5.43;;;18.90;99.90;;;;;;5036637;28;20037;-78
2022/03/18 09:35:38;;;;;;;13.77;5.03;;;19.00;99.90;;;;;;5034570;28;20072;-78
2022/03/18 09:38:04;;;;;;;13.60;5.95;;;19.20;99.90;;;;;;5053969;28;20051;-78
2022/03/18 09:40:31;;;;;;;11.48;4.75;;;19.00;99.90;;;;;;5052249;28;20123;-77
2022/03/18 09:43:05;;;;;;;14.30;5.50;;;19.40;99.90;;;;;;5037226;28;20064;-78
2022/03/18 09:45:34;;;;;;;10.07;5.00;;;19.50;99.90;;;;;;5053149;28;20388;-78
2022/03/18 09:48:02;;;;;;;13.13;5.63;;;19.50;99.90;;;;;;5053297;28;20046;-78
2022/03/18 09:50:29;;;;;;;12.52;5.53;;;19.50;99.90;;;;;;5053197;28;20491;-78
2022/03/18 09:52:55;;;;;;;13.60;5.13;;;20.00;99.30;;;;;;5036153;28;20063;-78
2022/03/18 09:55:20;;;;;;;;;;;19.80;99.90;;;;;;5053236;28;20083;-78
2022/03/18 09:57:46;;;;;;;14.55;6.30;;;20.30;99.00;;;;;;5052870;28;19916;-78
2022/03/18 10:00:12;;;;;;;16.02;4.97;;;20.10;98.70;;;;;;5052085;28;20127;-78
2022/03/18 10:02:38;;;;;;;12.35;4.95;;;20.00;97.80;;;;;;5053005;28;20040;-78
2022/03/18 10:05:08;;;;;;;;;;;19.90;98.70;;;;;;5053501;28;20043;-77
2022/03/18 10:07:34;;;;;;;15.07;4.82;;;19.90;98.70;;;;;;5053217;28;19969;-77
2022/03/18 10:10:02;;;;;;;;;;;19.60;98.10;;;;;;5037244;28;20119;-78
2022/03/18 10:12:33;;;;;;;11.00;4.80;;;19.70;99.50;;;;;;5053028;28;19916;-78
2022/03/18 10:15:04;;;;;;;11.00;5.15;;;19.70;99.40;;;;;;5036505;28;20131;-78
2022/03/18 10:17:40;;;;;;;14.25;5.18;;;20.00;98.40;;;;;;5053146;28;20093;-78
2022/03/18 10:20:06;;;;;;;11.90;5.07;;;20.00;99.10;;;;;;5036422;28;20101;-78
2022/03/18 10:22:33;;;;;;;13.55;4.97;;;20.30;97.70;;;;;;5053319;28;20046;-78
2022/03/18 10:25:00;;;;;;;9.60;4.63;;;20.50;97.30;;;;;;5053165;28;20396;-78
2022/03/18 10:27:26;;;;;;;9.35;4.75;;;21.00;96.90;;;;;;5036761;28;20097;-77
2022/03/18 10:29:53;;;;;;;;;;;21.10;97.10;;;;;;5036919;28;20120;-77
2022/03/18 10:32:20;;;;;;;12.32;4.60;;;21.20;96.00;;;;;;5036916;28;20340;-77
2022/03/18 10:37:42;;;;;;;13.80;5.15;;;21.30;95.90;;;;;;5052977;28;20365;-76
2022/03/18 10:40:09;;;;;;;12.13;4.80;;;21.40;95.40;;;;;;5051449;28;20044;-76
2022/03/18 10:42:35;;;;;;;11.18;4.50;;;21.10;95.60;;;;;;5052999;28;20115;-78
2022/03/18 10:45:02;;;;;;;;;;;21.40;94.70;;;;;;5013094;28;20145;-78
2022/03/18 10:47:32;;;;;;;;;;;22.20;93.60;;;;;;5052914;28;20046;-79
2022/03/18 10:50:10;;;;;;;11.50;4.25;;;21.90;93.60;;;;;;5053043;28;19951;-80
2022/03/18 10:52:59;;;;;;;12.10;4.65;;;22.50;93.00;;;;;;5036435;28;20045;-78
2022/03/18 10:55:26;;;;;;;11.35;3.97;;;22.40;93.30;;;;;;5033223;28;20059;-79
2022/03/18 10:57:52;;;;;;;10.45;3.90;;;22.40;92.20;;;;;;5054671;28;20137;-79
2022/03/18 11:00:18;;;;;;;;;;;21.70;91.50;;;;;;5049680;28;20036;-79
2022/03/18 11:02:47;;;;;;;10.45;3.97;;;21.80;91.90;;;;;;5083722;28;20409;-79
2022/03/18 11:05:14;;;;;;;12.98;4.38;;;22.20;92.00;;;;;;5056844;28;20051;-79
2022/03/18 11:07:43;;;;;;;10.23;4.20;;;22.00;93.00;;;;;;5073556;28;20045;-76
2022/03/18 11:13:02;;;;;;;11.07;3.95;;;21.90;92.70;;;;;;5056108;28;20108;-77
2022/03/18 11:15:29;;;;;;;12.48;4.20;;;21.40;91.60;;;;;;5056450;28;20044;-78
2022/03/18 11:17:56;;;;;;;13.20;3.88;;;21.50;92.00;;;;;;5056643;28;20036;-78
2022/03/18 11:20:27;;;;;;;9.07;3.90;;;22.30;92.10;;;;;;5056262;28;20186;-78
2022/03/18 11:22:56;;;;;;;11.90;4.38;;;22.40;91.60;;;;;;5056513;28;20032;-78
2022/03/18 11:25:23;;;;;;;8.18;4.15;;;22.30;92.20;;;;;;5056711;28;20032;-79
2022/03/18 11:27:51;;;;;;;11.20;4.57;;;22.40;91.60;;;;;;5023185;28;20043;-79
2022/03/18 11:30:35;;;;;;;11.82;4.18;;;22.60;91.40;;;;;;5039794;28;20798;-78
2022/03/18 11:33:10;;;;;;;10.50;4.18;;;22.20;91.70;;;;;;5039393;28;20041;-78
2022/03/18 11:36:06;;;;;;;12.88;4.30;;;22.10;91.00;;;;;;5054323;28;20036;-77
2022/03/18 11:38:57;;;;;;;12.73;4.07;;;22.00;91.00;;;;;;5051121;28;20124;-79
2022/03/18 11:41:46;;;;;;;13.13;3.95;;;22.40;90.20;;;;;;5056356;28;20060;-78
2022/03/18 11:44:52;;;;;;;11.52;3.47;;;23.30;87.00;;;;;;5055733;28;20123;-78
2022/03/18 11:47:30;;;;;;;8.05;3.90;;;23.00;88.10;;;;;;5055363;28;20040;-78
2022/03/18 11:50:00;;;;;;;13.07;3.63;;;22.90;87.20;;;;;;5056444;28;20055;-79
2022/03/18 11:52:26;;;;;;;12.77;4.18;;;22.50;88.70;;;;;;5056045;28;20383;-78
2022/03/18 11:54:53;;;;;;;9.80;3.97;;;22.20;88.20;;;;;;5039111;28;20040;-79
2022/03/18 11:57:42;;;;;;;13.57;4.43;;;22.50;88.50;;;;;;5055211;28;20040;-78
2022/03/18 12:00:35;;;;;;;10.70;3.75;;;22.60;89.30;;;;;;5055552;28;20509;-78
2022/03/18 12:03:02;;;;;;;10.27;4.43;;;23.00;86.80;;;;;;5054498;28;20083;-79
2022/03/18 12:05:32;;;;;;;13.40;4.63;;;22.90;89.30;;;;;;5039581;28;20052;-79
2022/03/18 12:07:59;;;;;;;10.98;3.90;;;23.20;86.60;;;;;;5051998;28;20055;-78
2022/03/18 12:10:40;;;;;;;10.20;3.97;;;22.70;88.30;;;;;;5052732;28;20037;-78
2022/03/18 12:13:06;;;;;;;13.35;3.90;;;21.50;89.70;;;;;;5051963;28;20099;-79
2022/03/18 12:15:43;;;;;;;;;;;21.70;90.50;;;;;;5052948;28;20041;-78
2022/03/18 12:18:08;;;;;;;10.38;3.22;;;22.40;90.00;;;;;;5051137;28;19934;-80
2022/03/18 12:20:36;;;;;;;;;;;21.90;87.40;;;;;;5034938;28;20489;-79
2022/03/18 12:23:04;;;;;;;12.70;3.63;;;22.60;87.30;;;;;;5052074;28;20269;-80
2022/03/18 12:25:30;;;;;;;10.32;4.18;;;22.80;88.60;;;;;;5051941;28;20116;-79
2022/03/18 12:27:56;;;;;;;11.35;3.20;;;22.50;88.40;;;;;;5035900;28;20123;-79
2022/03/18 12:30:27;;;;;;;10.70;2.92;;;21.20;89.50;;;;;;5051425;28;20045;-78
2022/03/18 12:33:05;;;;;;;9.35;3.25;;;21.10;90.20;;;;;;5035180;28;20036;-79
2022/03/18 12:35:33;;;;;;;8.35;2.70;;;21.30;88.90;;;;;;5052096;28;20083;-78
2022/03/18 12:38:18;;;;;;;10.48;3.42;;;21.70;89.10;;;;;;5052200;28;20037;-79
2022/03/18 12:40:58;;;;;;;13.18;3.60;;;22.50;87.60;;;;;;5051748;28;20506;-78
2022/03/18 12:43:27;;;;;;;10.88;4.00;;;23.30;85.50;;;;;;5034240;28;20073;-80
2022/03/18 12:45:52;;;;;;;11.07;3.00;;;23.40;86.10;;;;;;5034884;28;20037;-79
2022/03/18 12:48:21;;;;;;;13.20;3.70;;;22.20;86.00;;;;;;5017399;28;20033;-79
2022/03/18 12:50:52;;;;;;;9.70;3.28;;;21.20;87.80;;;;;;5035175;28;20045;-78
2022/03/18 12:53:21;;;;;;;10.80;3.53;;;20.80;89.00;;;;;;5050466;28;20041;-78
2022/03/18 12:55:53;;;;;;;12.20;3.55;;;20.60;90.70;;;;;;5051006;28;20045;-79
2022/03/18 12:58:21;;;;;;;9.70;3.50;;;21.00;90.40;;;;;;5036179;28;20546;-79
2022/03/18 13:00:56;;;;;;;11.93;3.53;;;21.20;90.20;;;;;;5035668;28;20037;-78
2022/03/18 13:03:30;;;;;;;15.05;4.05;;;20.80;91.00;;;;;;5049300;28;20132;-78
2022/03/18 13:06:05;;;;;;;9.73;3.65;;;20.40;91.40;;;;;;5048575;28;20041;-79